sensor_id;sensor_type;location;lat;lon;timestamp;temperature;humidity
7445;DHT22;3764;48.126;11.594;2023-11-19T00:01:35;4.50;99.90
7445;DHT22;3764;48.126;11.594;2023-11-19T00:04:02;4.50;99.90
7445;DHT22;3764;48.126;11.594;2023-11-19T00:06:30;4.50;99.90
7445;DHT22;3764;48.126;11.594;2023-11-19T00:08:57;4.50;99.90
7445;DHT22;3764;48.126;11.594;2023-11-19T00:11:25;4.50;99.90
7445;DHT22;3764;48.126;11.594;2023-11-19T00:13:53;4.60;99.90
7445;DHT22;3764;48.126;11.594;2023-11-19T00:16:21;4.60;99.90
7445;DHT22;3764;48.126;11.594;2023-11-19T00:18:49;4.60;99.90
7445;DHT22;3764;48.126;11.594;2023-11-19T00:21:16;4.60;99.90
7445;DHT22;3764;48.126;11.594;2023-11-19T00:23:43;4.60;99.90
7445;DHT22;3764;48.126;11.594;2023-11-19T00:26:10;4.60;99.90
7445;DHT22;3764;48.126;11.594;2023-11-19T00:28:40;4.60;99.90
7445;DHT22;3764;48.126;11.594;2023-11-19T00:31:07;4.70;99.90
7445;DHT22;3764;48.126;11.594;2023-11-19T00:33:35;4.70;99.90
7445;DHT22;3764;48.126;11.594;2023-11-19T00:36:03;4.70;99.90
7445;DHT22;3764;48.126;11.594;2023-11-19T00:38:31;4.80;99.90
7445;DHT22;3764;48.126;11.594;2023-11-19T00:40:58;4.80;99.90
7445;DHT22;3764;48.126;11.594;2023-11-19T00:43:25;4.80;99.90
7445;DHT22;3764;48.126;11.594;2023-11-19T00:45:53;4.80;99.90
7445;DHT22;3764;48.126;11.594;2023-11-19T00:48:20;4.90;99.90
7445;DHT22;3764;48.126;11.594;2023-11-19T00:50:48;4.90;99.90
7445;DHT22;3764;48.126;11.594;2023-11-19T00:53:15;5.00;99.90
7445;DHT22;3764;48.126;11.594;2023-11-19T00:55:43;5.00;99.90
7445;DHT22;3764;48.126;11.594;2023-11-19T00:58:10;5.00;99.90
7445;DHT22;3764;48.126;11.594;2023-11-19T01:00:37;5.00;99.90
7445;DHT22;3764;48.126;11.594;2023-11-19T01:03:04;5.00;99.90
7445;DHT22;3764;48.126;11.594;2023-11-19T01:05:32;5.00;99.90
7445;DHT22;3764;48.126;11.594;2023-11-19T01:08:01;5.10;99.90
7445;DHT22;3764;48.126;11.594;2023-11-19T01:10:30;5.10;99.90
7445;DHT22;3764;48.126;11.594;2023-11-19T01:12:57;5.10;99.90
7445;DHT22;3764;48.126;11.594;2023-11-19T01:15:25;5.10;99.90
7445;DHT22;3764;48.126;11.594;2023-11-19T01:17:52;5.10;99.90
7445;DHT22;3764;48.126;11.594;2023-11-19T01:20:19;5.20;99.90
7445;DHT22;3764;48.126;11.594;2023-11-19T01:22:47;5.20;99.90
7445;DHT22;3764;48.126;11.594;2023-11-19T01:25:16;5.20;99.90
7445;DHT22;3764;48.126;11.594;2023-11-19T01:27:43;5.20;99.90
7445;DHT22;3764;48.126;11.594;2023-11-19T01:30:11;5.20;99.90
7445;DHT22;3764;48.126;11.594;2023-11-19T01:32:39;5.20;99.90
7445;DHT22;3764;48.126;11.594;2023-11-19T01:35:07;5.30;99.90
7445;DHT22;3764;48.126;11.594;2023-11-19T01:37:35;5.30;99.90
7445;DHT22;3764;48.126;11.594;2023-11-19T01:40:02;5.30;99.90
7445;DHT22;3764;48.126;11.594;2023-11-19T01:42:36;5.30;99.90
7445;DHT22;3764;48.126;11.594;2023-11-19T01:45:04;5.30;99.90
7445;DHT22;3764;48.126;11.594;2023-11-19T01:47:34;5.40;99.90
7445;DHT22;3764;48.126;11.594;2023-11-19T01:50:03;5.40;99.90
7445;DHT22;3764;48.126;11.594;2023-11-19T01:52:32;5.40;99.90
7445;DHT22;3764;48.126;11.594;2023-11-19T01:55:01;5.40;99.90
7445;DHT22;3764;48.126;11.594;2023-11-19T01:57:30;5.50;99.90
7445;DHT22;3764;48.126;11.594;2023-11-19T01:59:58;5.50;99.90
7445;DHT22;3764;48.126;11.594;2023-11-19T02:02:25;5.50;99.90
7445;DHT22;3764;48.126;11.594;2023-11-19T02:04:53;5.50;99.90
7445;DHT22;3764;48.126;11.594;2023-11-19T02:07:20;5.60;99.90
7445;DHT22;3764;48.126;11.594;2023-11-19T02:09:46;5.60;99.90
7445;DHT22;3764;48.126;11.594;2023-11-19T02:12:13;5.60;99.90
7445;DHT22;3764;48.126;11.594;2023-11-19T02:14:42;5.60;99.90
7445;DHT22;3764;48.126;11.594;2023-11-19T02:17:27;5.70;99.90
7445;DHT22;3764;48.126;11.594;2023-11-19T02:19:54;5.70;99.90
7445;DHT22;3764;48.126;11.594;2023-11-19T02:22:21;5.80;99.90
7445;DHT22;3764;48.126;11.594;2023-11-19T02:24:51;5.80;99.90
7445;DHT22;3764;48.126;11.594;2023-11-19T02:27:28;5.90;99.90
7445;DHT22;3764;48.126;11.594;2023-11-19T02:29:59;5.90;99.90
7445;DHT22;3764;48.126;11.594;2023-11-19T02:32:27;6.00;99.90
7445;DHT22;3764;48.126;11.594;2023-11-19T02:34:56;6.10;99.90
7445;DHT22;3764;48.126;11.594;2023-11-19T02:37:23;6.20;99.90
7445;DHT22;3764;48.126;11.594;2023-11-19T02:39:51;6.30;99.90
7445;DHT22;3764;48.126;11.594;2023-11-19T02:42:18;6.30;99.90
7445;DHT22;3764;48.126;11.594;2023-11-19T02:44:46;6.40;99.90
7445;DHT22;3764;48.126;11.594;2023-11-19T02:47:15;6.40;99.90
7445;DHT22;3764;48.126;11.594;2023-11-19T02:49:42;6.50;99.90
7445;DHT22;3764;48.126;11.594;2023-11-19T02:52:10;6.50;99.90
7445;DHT22;3764;48.126;11.594;2023-11-19T02:54:37;6.50;99.90
7445;DHT22;3764;48.126;11.594;2023-11-19T02:57:05;6.60;99.90
7445;DHT22;3764;48.126;11.594;2023-11-19T02:59:38;6.60;99.90
7445;DHT22;3764;48.126;11.594;2023-11-19T03:02:07;6.60;99.90
7445;DHT22;3764;48.126;11.594;2023-11-19T03:04:38;6.70;99.90
7445;DHT22;3764;48.126;11.594;2023-11-19T03:07:06;6.70;99.90
7445;DHT22;3764;48.126;11.594;2023-11-19T03:09:34;6.80;99.90
7445;DHT22;3764;48.126;11.594;2023-11-19T03:12:02;6.80;99.90
7445;DHT22;3764;48.126;11.594;2023-11-19T03:14:33;6.80;99.90
7445;DHT22;3764;48.126;11.594;2023-11-19T03:17:01;6.80;99.90
7445;DHT22;3764;48.126;11.594;2023-11-19T03:19:28;6.90;99.90
7445;DHT22;3764;48.126;11.594;2023-11-19T03:21:57;6.90;99.90
7445;DHT22;3764;48.126;11.594;2023-11-19T03:24:26;6.90;99.90
7445;DHT22;3764;48.126;11.594;2023-11-19T03:26:53;6.90;99.90
7445;DHT22;3764;48.126;11.594;2023-11-19T03:29:20;6.90;99.90
7445;DHT22;3764;48.126;11.594;2023-11-19T03:31:48;6.90;99.90
7445;DHT22;3764;48.126;11.594;2023-11-19T03:34:15;6.90;99.90
7445;DHT22;3764;48.126;11.594;2023-11-19T03:36:43;7.00;99.90
7445;DHT22;3764;48.126;11.594;2023-11-19T03:39:11;7.00;99.90
7445;DHT22;3764;48.126;11.594;2023-11-19T03:41:38;7.00;99.90
7445;DHT22;3764;48.126;11.594;2023-11-19T03:44:06;7.00;99.90
7445;DHT22;3764;48.126;11.594;2023-11-19T03:46:33;7.00;99.90
7445;DHT22;3764;48.126;11.594;2023-11-19T03:49:00;7.00;99.90
7445;DHT22;3764;48.126;11.594;2023-11-19T03:51:29;7.10;99.90
7445;DHT22;3764;48.126;11.594;2023-11-19T03:53:57;7.10;99.90
7445;DHT22;3764;48.126;11.594;2023-11-19T03:56:26;7.10;99.90
7445;DHT22;3764;48.126;11.594;2023-11-19T03:58:53;7.10;99.90
7445;DHT22;3764;48.126;11.594;2023-11-19T04:01:21;7.10;99.90
7445;DHT22;3764;48.126;11.594;2023-11-19T04:03:48;7.20;99.90
7445;DHT22;3764;48.126;11.594;2023-11-19T04:06:15;7.20;99.90
7445;DHT22;3764;48.126;11.594;2023-11-19T04:08:42;7.20;99.90
7445;DHT22;3764;48.126;11.594;2023-11-19T04:11:10;7.20;99.90
7445;DHT22;3764;48.126;11.594;2023-11-19T04:13:39;7.30;99.90
7445;DHT22;3764;48.126;11.594;2023-11-19T04:16:06;7.30;99.90
7445;DHT22;3764;48.126;11.594;2023-11-19T04:18:34;7.30;99.90
7445;DHT22;3764;48.126;11.594;2023-11-19T04:21:01;7.30;99.90
7445;DHT22;3764;48.126;11.594;2023-11-19T04:23:28;7.30;99.90
7445;DHT22;3764;48.126;11.594;2023-11-19T04:25:55;7.30;99.90
7445;DHT22;3764;48.126;11.594;2023-11-19T04:28:22;7.40;99.90
7445;DHT22;3764;48.126;11.594;2023-11-19T04:30:54;7.40;99.90
7445;DHT22;3764;48.126;11.594;2023-11-19T04:33:21;7.40;99.90
7445;DHT22;3764;48.126;11.594;2023-11-19T04:35:48;7.40;99.90
7445;DHT22;3764;48.126;11.594;2023-11-19T04:38:15;7.40;99.90
7445;DHT22;3764;48.126;11.594;2023-11-19T04:40:42;7.50;99.90
7445;DHT22;3764;48.126;11.594;2023-11-19T04:43:09;7.60;99.90
7445;DHT22;3764;48.126;11.594;2023-11-19T04:45:37;7.60;99.90
7445;DHT22;3764;48.126;11.594;2023-11-19T04:48:06;7.60;99.90
7445;DHT22;3764;48.126;11.594;2023-11-19T04:50:34;7.70;99.90
7445;DHT22;3764;48.126;11.594;2023-11-19T04:53:02;7.80;99.90
7445;DHT22;3764;48.126;11.594;2023-11-19T04:55:29;7.80;99.90
7445;DHT22;3764;48.126;11.594;2023-11-19T04:57:56;7.80;99.90
7445;DHT22;3764;48.126;11.594;2023-11-19T05:00:23;7.90;99.90
7445;DHT22;3764;48.126;11.594;2023-11-19T05:02:51;8.00;99.90
7445;DHT22;3764;48.126;11.594;2023-11-19T05:05:20;8.10;99.90
7445;DHT22;3764;48.126;11.594;2023-11-19T05:07:47;8.30;99.90
7445;DHT22;3764;48.126;11.594;2023-11-19T05:10:14;8.40;99.90
7445;DHT22;3764;48.126;11.594;2023-11-19T05:12:42;8.50;99.90
7445;DHT22;3764;48.126;11.594;2023-11-19T05:15:09;8.60;99.90
7445;DHT22;3764;48.126;11.594;2023-11-19T05:17:38;8.70;99.90
7445;DHT22;3764;48.126;11.594;2023-11-19T05:20:06;8.80;99.90
7445;DHT22;3764;48.126;11.594;2023-11-19T05:22:40;8.80;99.90
7445;DHT22;3764;48.126;11.594;2023-11-19T05:25:08;8.90;99.90
7445;DHT22;3764;48.126;11.594;2023-11-19T05:27:36;9.00;99.90
7445;DHT22;3764;48.126;11.594;2023-11-19T05:30:04;9.10;99.90
7445;DHT22;3764;48.126;11.594;2023-11-19T05:32:33;9.10;99.90
7445;DHT22;3764;48.126;11.594;2023-11-19T05:35:01;9.10;99.90
7445;DHT22;3764;48.126;11.594;2023-11-19T05:37:28;9.20;99.90
7445;DHT22;3764;48.126;11.594;2023-11-19T05:39:57;9.20;99.90
7445;DHT22;3764;48.126;11.594;2023-11-19T05:42:25;9.20;99.90
7445;DHT22;3764;48.126;11.594;2023-11-19T05:44:53;9.30;99.90
7445;DHT22;3764;48.126;11.594;2023-11-19T05:47:20;9.20;99.90
7445;DHT22;3764;48.126;11.594;2023-11-19T05:49:47;9.30;99.90
7445;DHT22;3764;48.126;11.594;2023-11-19T05:52:14;9.30;99.90
7445;DHT22;3764;48.126;11.594;2023-11-19T05:54:42;9.20;99.90
7445;DHT22;3764;48.126;11.594;2023-11-19T05:57:10;9.30;99.90
7445;DHT22;3764;48.126;11.594;2023-11-19T05:59:39;9.30;99.90
7445;DHT22;3764;48.126;11.594;2023-11-19T06:02:06;9.20;99.90
7445;DHT22;3764;48.126;11.594;2023-11-19T06:04:33;9.30;99.90
7445;DHT22;3764;48.126;11.594;2023-11-19T06:07:01;9.30;99.90
7445;DHT22;3764;48.126;11.594;2023-11-19T06:09:28;9.30;99.90
7445;DHT22;3764;48.126;11.594;2023-11-19T06:11:55;9.30;99.90
7445;DHT22;3764;48.126;11.594;2023-11-19T06:14:24;9.40;99.90
7445;DHT22;3764;48.126;11.594;2023-11-19T06:16:51;9.40;99.90
7445;DHT22;3764;48.126;11.594;2023-11-19T06:19:18;9.40;99.90
7445;DHT22;3764;48.126;11.594;2023-11-19T06:21:45;9.40;99.90
7445;DHT22;3764;48.126;11.594;2023-11-19T06:24:13;9.40;99.90
7445;DHT22;3764;48.126;11.594;2023-11-19T06:26:40;9.40;99.90
7445;DHT22;3764;48.126;11.594;2023-11-19T06:29:08;9.40;99.90
7445;DHT22;3764;48.126;11.594;2023-11-19T06:31:36;9.50;99.90
7445;DHT22;3764;48.126;11.594;2023-11-19T06:34:03;9.50;99.90
7445;DHT22;3764;48.126;11.594;2023-11-19T06:36:30;9.50;99.90
7445;DHT22;3764;48.126;11.594;2023-11-19T06:38:58;9.50;99.90
7445;DHT22;3764;48.126;11.594;2023-11-19T06:41:25;9.50;99.90
7445;DHT22;3764;48.126;11.594;2023-11-19T06:43:52;9.60;99.90
7445;DHT22;3764;48.126;11.594;2023-11-19T06:46:19;9.60;99.90
7445;DHT22;3764;48.126;11.594;2023-11-19T06:48:47;9.60;99.90
7445;DHT22;3764;48.126;11.594;2023-11-19T06:51:15;9.60;99.90
7445;DHT22;3764;48.126;11.594;2023-11-19T06:53:42;9.60;99.90
7445;DHT22;3764;48.126;11.594;2023-11-19T06:56:18;9.60;99.90
7445;DHT22;3764;48.126;11.594;2023-11-19T06:58:46;9.60;99.90
7445;DHT22;3764;48.126;11.594;2023-11-19T07:01:13;9.60;99.90
7445;DHT22;3764;48.126;11.594;2023-11-19T07:03:40;9.60;99.90
7445;DHT22;3764;48.126;11.594;2023-11-19T07:06:10;9.60;99.90
7445;DHT22;3764;48.126;11.594;2023-11-19T07:08:38;9.70;99.90
7445;DHT22;3764;48.126;11.594;2023-11-19T07:11:05;9.70;99.90
7445;DHT22;3764;48.126;11.594;2023-11-19T07:13:35;9.80;99.90
7445;DHT22;3764;48.126;11.594;2023-11-19T07:16:03;9.80;99.90
7445;DHT22;3764;48.126;11.594;2023-11-19T07:18:30;9.90;99.90
7445;DHT22;3764;48.126;11.594;2023-11-19T07:20:57;9.80;99.90
7445;DHT22;3764;48.126;11.594;2023-11-19T07:23:26;9.80;99.90
7445;DHT22;3764;48.126;11.594;2023-11-19T07:25:53;9.90;99.90
7445;DHT22;3764;48.126;11.594;2023-11-19T07:28:20;9.80;99.90
7445;DHT22;3764;48.126;11.594;2023-11-19T07:30:48;9.80;99.90
7445;DHT22;3764;48.126;11.594;2023-11-19T07:33:15;9.90;99.90
7445;DHT22;3764;48.126;11.594;2023-11-19T07:35:42;9.90;99.90
7445;DHT22;3764;48.126;11.594;2023-11-19T07:38:10;9.90;99.90
7445;DHT22;3764;48.126;11.594;2023-11-19T07:40:38;10.00;99.90
7445;DHT22;3764;48.126;11.594;2023-11-19T07:43:05;10.00;99.90
7445;DHT22;3764;48.126;11.594;2023-11-19T07:45:33;10.10;99.90
7445;DHT22;3764;48.126;11.594;2023-11-19T07:48:00;10.10;99.90
7445;DHT22;3764;48.126;11.594;2023-11-19T07:50:28;10.10;99.90
7445;DHT22;3764;48.126;11.594;2023-11-19T07:52:57;10.20;99.90
7445;DHT22;3764;48.126;11.594;2023-11-19T07:55:24;10.20;99.90
7445;DHT22;3764;48.126;11.594;2023-11-19T07:57:52;10.20;99.90
7445;DHT22;3764;48.126;11.594;2023-11-19T08:00:20;10.20;99.90
7445;DHT22;3764;48.126;11.594;2023-11-19T08:02:47;10.20;99.90
7445;DHT22;3764;48.126;11.594;2023-11-19T08:05:15;10.20;99.90
7445;DHT22;3764;48.126;11.594;2023-11-19T08:07:42;10.20;99.90
7445;DHT22;3764;48.126;11.594;2023-11-19T08:10:09;10.20;99.90
7445;DHT22;3764;48.126;11.594;2023-11-19T08:12:36;10.20;99.90
7445;DHT22;3764;48.126;11.594;2023-11-19T08:15:06;10.30;99.90
7445;DHT22;3764;48.126;11.594;2023-11-19T08:17:34;10.20;99.90
7445;DHT22;3764;48.126;11.594;2023-11-19T08:20:01;10.20;99.90
7445;DHT22;3764;48.126;11.594;2023-11-19T08:22:30;10.30;99.90
7445;DHT22;3764;48.126;11.594;2023-11-19T08:24:58;10.30;99.90
7445;DHT22;3764;48.126;11.594;2023-11-19T08:27:25;10.40;99.90
7445;DHT22;3764;48.126;11.594;2023-11-19T08:29:53;10.40;99.90
7445;DHT22;3764;48.126;11.594;2023-11-19T08:32:22;10.50;99.90
7445;DHT22;3764;48.126;11.594;2023-11-19T08:34:49;10.60;99.90
7445;DHT22;3764;48.126;11.594;2023-11-19T08:37:16;10.60;99.90
7445;DHT22;3764;48.126;11.594;2023-11-19T08:39:46;10.70;99.90
7445;DHT22;3764;48.126;11.594;2023-11-19T08:42:13;10.70;99.90
7445;DHT22;3764;48.126;11.594;2023-11-19T08:44:41;10.70;99.90
7445;DHT22;3764;48.126;11.594;2023-11-19T08:47:09;10.70;99.90
7445;DHT22;3764;48.126;11.594;2023-11-19T08:49:38;10.70;99.90
7445;DHT22;3764;48.126;11.594;2023-11-19T08:52:05;10.80;99.90
7445;DHT22;3764;48.126;11.594;2023-11-19T08:54:33;10.80;99.90
7445;DHT22;3764;48.126;11.594;2023-11-19T08:57:00;10.90;99.90
7445;DHT22;3764;48.126;11.594;2023-11-19T08:59:28;10.90;99.90
7445;DHT22;3764;48.126;11.594;2023-11-19T09:01:55;10.90;99.90
7445;DHT22;3764;48.126;11.594;2023-11-19T09:04:23;10.90;99.90
7445;DHT22;3764;48.126;11.594;2023-11-19T09:06:51;10.90;99.90
7445;DHT22;3764;48.126;11.594;2023-11-19T09:09:18;10.90;99.90
7445;DHT22;3764;48.126;11.594;2023-11-19T09:11:45;10.80;99.90
7445;DHT22;3764;48.126;11.594;2023-11-19T09:14:12;10.90;99.90
7445;DHT22;3764;48.126;11.594;2023-11-19T09:16:39;10.90;99.90
7445;DHT22;3764;48.126;11.594;2023-11-19T09:19:06;10.90;99.90
7445;DHT22;3764;48.126;11.594;2023-11-19T09:21:33;10.80;99.90
7445;DHT22;3764;48.126;11.594;2023-11-19T09:24:06;10.90;99.90
7445;DHT22;3764;48.126;11.594;2023-11-19T09:26:33;10.90;99.90
7445;DHT22;3764;48.126;11.594;2023-11-19T09:29:01;10.90;99.90
7445;DHT22;3764;48.126;11.594;2023-11-19T09:31:29;10.90;99.90
7445;DHT22;3764;48.126;11.594;2023-11-19T09:33:56;10.90;99.90
7445;DHT22;3764;48.126;11.594;2023-11-19T09:36:23;10.90;99.90
7445;DHT22;3764;48.126;11.594;2023-11-19T09:38:50;11.00;99.90
7445;DHT22;3764;48.126;11.594;2023-11-19T09:41:18;11.00;99.90
7445;DHT22;3764;48.126;11.594;2023-11-19T09:43:45;11.00;99.90
7445;DHT22;3764;48.126;11.594;2023-11-19T09:46:15;11.10;99.90
7445;DHT22;3764;48.126;11.594;2023-11-19T09:48:43;11.00;99.90
7445;DHT22;3764;48.126;11.594;2023-11-19T09:51:11;11.10;99.90
7445;DHT22;3764;48.126;11.594;2023-11-19T09:53:39;11.10;99.90
7445;DHT22;3764;48.126;11.594;2023-11-19T09:56:07;11.10;99.90
7445;DHT22;3764;48.126;11.594;2023-11-19T09:58:36;11.10;99.90
7445;DHT22;3764;48.126;11.594;2023-11-19T10:01:03;11.10;99.90
7445;DHT22;3764;48.126;11.594;2023-11-19T10:03:38;11.10;99.90
7445;DHT22;3764;48.126;11.594;2023-11-19T10:06:07;11.10;99.90
7445;DHT22;3764;48.126;11.594;2023-11-19T10:08:36;11.20;99.90
7445;DHT22;3764;48.126;11.594;2023-11-19T10:11:05;11.20;99.90
7445;DHT22;3764;48.126;11.594;2023-11-19T10:13:36;11.20;99.90
7445;DHT22;3764;48.126;11.594;2023-11-19T10:16:07;11.20;99.90
7445;DHT22;3764;48.126;11.594;2023-11-19T10:18:35;11.30;99.90
7445;DHT22;3764;48.126;11.594;2023-11-19T10:21:04;11.30;99.90
7445;DHT22;3764;48.126;11.594;2023-11-19T10:23:48;11.30;99.90
7445;DHT22;3764;48.126;11.594;2023-11-19T10:26:16;11.30;99.90
7445;DHT22;3764;48.126;11.594;2023-11-19T10:28:46;11.40;99.90
7445;DHT22;3764;48.126;11.594;2023-11-19T10:31:13;11.40;99.90
7445;DHT22;3764;48.126;11.594;2023-11-19T10:33:40;11.50;99.90
7445;DHT22;3764;48.126;11.594;2023-11-19T10:36:08;11.50;99.90
7445;DHT22;3764;48.126;11.594;2023-11-19T10:38:35;11.50;99.90
7445;DHT22;3764;48.126;11.594;2023-11-19T10:41:03;11.60;99.90
7445;DHT22;3764;48.126;11.594;2023-11-19T10:43:31;11.60;99.90
7445;DHT22;3764;48.126;11.594;2023-11-19T10:46:12;11.70;99.90
7445;DHT22;3764;48.126;11.594;2023-11-19T10:48:40;11.70;99.90
7445;DHT22;3764;48.126;11.594;2023-11-19T10:51:08;11.80;99.90
7445;DHT22;3764;48.126;11.594;2023-11-19T10:53:37;11.90;99.90
7445;DHT22;3764;48.126;11.594;2023-11-19T10:56:10;11.90;99.90
7445;DHT22;3764;48.126;11.594;2023-11-19T10:58:44;12.00;99.90
7445;DHT22;3764;48.126;11.594;2023-11-19T11:01:16;12.00;99.90
7445;DHT22;3764;48.126;11.594;2023-11-19T11:03:46;12.20;99.90
7445;DHT22;3764;48.126;11.594;2023-11-19T11:06:15;12.20;99.90
7445;DHT22;3764;48.126;11.594;2023-11-19T11:08:43;12.20;99.90
7445;DHT22;3764;48.126;11.594;2023-11-19T11:11:13;12.20;99.90
7445;DHT22;3764;48.126;11.594;2023-11-19T11:13:43;12.20;99.90
7445;DHT22;3764;48.126;11.594;2023-11-19T11:16:12;12.20;99.90
7445;DHT22;3764;48.126;11.594;2023-11-19T11:18:40;12.20;99.90
7445;DHT22;3764;48.126;11.594;2023-11-19T11:21:09;12.30;99.90
7445;DHT22;3764;48.126;11.594;2023-11-19T11:23:57;12.30;99.90
7445;DHT22;3764;48.126;11.594;2023-11-19T11:26:40;12.40;99.90
7445;DHT22;3764;48.126;11.594;2023-11-19T11:29:15;12.40;99.90
7445;DHT22;3764;48.126;11.594;2023-11-19T11:31:52;12.40;99.90
7445;DHT22;3764;48.126;11.594;2023-11-19T11:34:36;12.50;99.90
7445;DHT22;3764;48.126;11.594;2023-11-19T11:37:14;12.50;99.90
7445;DHT22;3764;48.126;11.594;2023-11-19T11:39:46;12.50;99.90
7445;DHT22;3764;48.126;11.594;2023-11-19T11:42:35;12.60;99.90
7445;DHT22;3764;48.126;11.594;2023-11-19T11:45:04;12.60;99.90
7445;DHT22;3764;48.126;11.594;2023-11-19T11:48:06;12.60;99.90
7445;DHT22;3764;48.126;11.594;2023-11-19T11:50:47;12.60;99.90
7445;DHT22;3764;48.126;11.594;2023-11-19T11:53:19;12.60;99.90
7445;DHT22;3764;48.126;11.594;2023-11-19T11:55:55;12.70;99.90
7445;DHT22;3764;48.126;11.594;2023-11-19T11:58:35;12.70;99.90
7445;DHT22;3764;48.126;11.594;2023-11-19T12:01:05;12.70;99.90
7445;DHT22;3764;48.126;11.594;2023-11-19T12:03:34;12.80;99.90
7445;DHT22;3764;48.126;11.594;2023-11-19T12:06:01;12.90;99.90
7445;DHT22;3764;48.126;11.594;2023-11-19T12:08:29;12.90;99.90
7445;DHT22;3764;48.126;11.594;2023-11-19T12:10:58;12.90;99.90
7445;DHT22;3764;48.126;11.594;2023-11-19T12:13:42;13.00;99.90
7445;DHT22;3764;48.126;11.594;2023-11-19T12:16:11;13.00;99.90
7445;DHT22;3764;48.126;11.594;2023-11-19T12:18:40;13.00;99.90
7445;DHT22;3764;48.126;11.594;2023-11-19T12:21:08;13.00;99.90
7445;DHT22;3764;48.126;11.594;2023-11-19T12:23:46;13.00;99.90
7445;DHT22;3764;48.126;11.594;2023-11-19T12:26:34;13.10;99.90
7445;DHT22;3764;48.126;11.594;2023-11-19T12:29:02;13.10;99.90
7445;DHT22;3764;48.126;11.594;2023-11-19T12:31:32;13.10;99.90
7445;DHT22;3764;48.126;11.594;2023-11-19T12:34:09;13.10;99.90
7445;DHT22;3764;48.126;11.594;2023-11-19T12:36:39;13.10;99.90
7445;DHT22;3764;48.126;11.594;2023-11-19T12:39:07;13.10;99.90
7445;DHT22;3764;48.126;11.594;2023-11-19T12:41:49;13.10;99.90
7445;DHT22;3764;48.126;11.594;2023-11-19T12:44:16;13.10;99.90
7445;DHT22;3764;48.126;11.594;2023-11-19T12:46:44;13.00;99.90
7445;DHT22;3764;48.126;11.594;2023-11-19T12:49:12;13.00;99.90
7445;DHT22;3764;48.126;11.594;2023-11-19T12:51:39;13.00;99.90
7445;DHT22;3764;48.126;11.594;2023-11-19T12:54:07;13.10;99.90
7445;DHT22;3764;48.126;11.594;2023-11-19T12:56:34;13.10;99.90
7445;DHT22;3764;48.126;11.594;2023-11-19T12:59:10;13.20;99.90
7445;DHT22;3764;48.126;11.594;2023-11-19T13:01:38;13.30;99.90
7445;DHT22;3764;48.126;11.594;2023-11-19T13:04:28;13.20;99.90
7445;DHT22;3764;48.126;11.594;2023-11-19T13:06:56;13.20;99.90
7445;DHT22;3764;48.126;11.594;2023-11-19T13:09:24;13.20;99.90
7445;DHT22;3764;48.126;11.594;2023-11-19T13:11:52;13.20;99.90
7445;DHT22;3764;48.126;11.594;2023-11-19T13:14:20;13.20;99.90
7445;DHT22;3764;48.126;11.594;2023-11-19T13:16:47;13.20;99.90
7445;DHT22;3764;48.126;11.594;2023-11-19T13:19:14;13.20;99.90
7445;DHT22;3764;48.126;11.594;2023-11-19T13:21:46;13.20;99.90
7445;DHT22;3764;48.126;11.594;2023-11-19T13:24:14;13.20;99.90
7445;DHT22;3764;48.126;11.594;2023-11-19T13:26:41;13.20;99.90
7445;DHT22;3764;48.126;11.594;2023-11-19T13:29:08;13.20;99.90
7445;DHT22;3764;48.126;11.594;2023-11-19T13:31:36;13.20;99.90
7445;DHT22;3764;48.126;11.594;2023-11-19T13:34:04;13.20;99.90
7445;DHT22;3764;48.126;11.594;2023-11-19T13:36:33;13.10;99.90
7445;DHT22;3764;48.126;11.594;2023-11-19T13:39:01;13.10;99.90
7445;DHT22;3764;48.126;11.594;2023-11-19T13:41:29;13.10;99.90
7445;DHT22;3764;48.126;11.594;2023-11-19T13:43:56;13.10;99.90
7445;DHT22;3764;48.126;11.594;2023-11-19T13:46:23;13.10;99.90
7445;DHT22;3764;48.126;11.594;2023-11-19T13:48:50;13.10;99.90
7445;DHT22;3764;48.126;11.594;2023-11-19T13:51:17;13.10;99.90
7445;DHT22;3764;48.126;11.594;2023-11-19T13:53:44;13.10;99.90
7445;DHT22;3764;48.126;11.594;2023-11-19T13:56:12;13.00;99.90
7445;DHT22;3764;48.126;11.594;2023-11-19T13:58:39;13.00;99.90
7445;DHT22;3764;48.126;11.594;2023-11-19T14:01:07;12.90;99.90
7445;DHT22;3764;48.126;11.594;2023-11-19T14:03:39;12.90;99.90
7445;DHT22;3764;48.126;11.594;2023-11-19T14:06:07;13.00;99.90
7445;DHT22;3764;48.126;11.594;2023-11-19T14:08:34;12.90;99.90
7445;DHT22;3764;48.126;11.594;2023-11-19T14:11:02;12.90;99.90
7445;DHT22;3764;48.126;11.594;2023-11-19T14:13:30;12.90;99.90
7445;DHT22;3764;48.126;11.594;2023-11-19T14:15:58;12.90;99.90
7445;DHT22;3764;48.126;11.594;2023-11-19T14:18:25;12.90;99.90
7445;DHT22;3764;48.126;11.594;2023-11-19T14:20:52;12.90;99.90
7445;DHT22;3764;48.126;11.594;2023-11-19T14:23:19;12.90;99.90
7445;DHT22;3764;48.126;11.594;2023-11-19T14:25:46;12.90;99.90
7445;DHT22;3764;48.126;11.594;2023-11-19T14:28:15;12.80;99.90
7445;DHT22;3764;48.126;11.594;2023-11-19T14:30:43;12.80;99.90
7445;DHT22;3764;48.126;11.594;2023-11-19T14:33:12;12.80;99.90
7445;DHT22;3764;48.126;11.594;2023-11-19T14:35:39;12.80;99.90
7445;DHT22;3764;48.126;11.594;2023-11-19T14:38:06;12.80;99.90
7445;DHT22;3764;48.126;11.594;2023-11-19T14:40:35;12.90;99.90
7445;DHT22;3764;48.126;11.594;2023-11-19T14:43:02;12.90;99.90
7445;DHT22;3764;48.126;11.594;2023-11-19T14:45:29;12.90;99.90
7445;DHT22;3764;48.126;11.594;2023-11-19T14:47:58;13.00;99.90
7445;DHT22;3764;48.126;11.594;2023-11-19T14:50:27;12.90;99.90
7445;DHT22;3764;48.126;11.594;2023-11-19T14:52:54;13.00;99.90
7445;DHT22;3764;48.126;11.594;2023-11-19T14:55:21;12.90;99.90
7445;DHT22;3764;48.126;11.594;2023-11-19T14:57:48;13.00;99.90
7445;DHT22;3764;48.126;11.594;2023-11-19T15:00:16;12.90;99.90
7445;DHT22;3764;48.126;11.594;2023-11-19T15:02:43;12.90;99.90
7445;DHT22;3764;48.126;11.594;2023-11-19T15:05:12;12.90;99.90
7445;DHT22;3764;48.126;11.594;2023-11-19T15:07:39;12.90;99.90
7445;DHT22;3764;48.126;11.594;2023-11-19T15:10:07;12.80;99.90
7445;DHT22;3764;48.126;11.594;2023-11-19T15:12:36;12.80;99.90
7445;DHT22;3764;48.126;11.594;2023-11-19T15:15:07;12.80;99.90
7445;DHT22;3764;48.126;11.594;2023-11-19T15:17:34;12.70;99.90
7445;DHT22;3764;48.126;11.594;2023-11-19T15:20:02;12.80;99.90
7445;DHT22;3764;48.126;11.594;2023-11-19T15:22:31;12.70;99.90
7445;DHT22;3764;48.126;11.594;2023-11-19T15:24:58;12.70;99.90
7445;DHT22;3764;48.126;11.594;2023-11-19T15:27:25;12.70;99.90
7445;DHT22;3764;48.126;11.594;2023-11-19T15:29:53;12.60;99.90
7445;DHT22;3764;48.126;11.594;2023-11-19T15:32:20;12.60;99.90
7445;DHT22;3764;48.126;11.594;2023-11-19T15:34:47;12.60;99.90
7445;DHT22;3764;48.126;11.594;2023-11-19T15:37:14;12.70;99.90
7445;DHT22;3764;48.126;11.594;2023-11-19T15:39:43;12.70;99.90
7445;DHT22;3764;48.126;11.594;2023-11-19T15:42:10;12.60;99.90
7445;DHT22;3764;48.126;11.594;2023-11-19T15:44:37;12.60;99.90
7445;DHT22;3764;48.126;11.594;2023-11-19T15:47:05;12.60;99.90
7445;DHT22;3764;48.126;11.594;2023-11-19T15:49:33;12.50;99.90
7445;DHT22;3764;48.126;11.594;2023-11-19T15:52:00;12.50;99.90
7445;DHT22;3764;48.126;11.594;2023-11-19T15:54:27;12.50;99.90
7445;DHT22;3764;48.126;11.594;2023-11-19T15:56:55;12.40;99.90
7445;DHT22;3764;48.126;11.594;2023-11-19T15:59:22;12.30;99.90
7445;DHT22;3764;48.126;11.594;2023-11-19T16:01:49;12.30;99.90